sensor_id;sensor_type;location;lat;lon;timestamp;temperature;humidity
20416;DHT22;10367;52.202;5.996;2024-03-17T00:01:04;3.40;99.90
20416;DHT22;10367;52.202;5.996;2024-03-17T00:03:33;3.50;99.90
20416;DHT22;10367;52.202;5.996;2024-03-17T00:06:00;3.60;99.90
20416;DHT22;10367;52.202;5.996;2024-03-17T00:08:29;3.60;99.90
20416;DHT22;10367;52.202;5.996;2024-03-17T00:10:56;3.60;99.90
20416;DHT22;10367;52.202;5.996;2024-03-17T00:13:24;3.60;99.90
20416;DHT22;10367;52.202;5.996;2024-03-17T00:15:51;3.70;99.90
20416;DHT22;10367;52.202;5.996;2024-03-17T00:18:19;3.60;99.90
20416;DHT22;10367;52.202;5.996;2024-03-17T00:20:46;3.60;99.90
20416;DHT22;10367;52.202;5.996;2024-03-17T00:23:14;3.60;99.90
20416;DHT22;10367;52.202;5.996;2024-03-17T00:25:42;3.60;99.90
20416;DHT22;10367;52.202;5.996;2024-03-17T00:28:10;3.60;99.90
20416;DHT22;10367;52.202;5.996;2024-03-17T00:30:38;3.60;99.90
20416;DHT22;10367;52.202;5.996;2024-03-17T00:33:05;3.70;99.90
20416;DHT22;10367;52.202;5.996;2024-03-17T00:35:32;3.70;99.90
20416;DHT22;10367;52.202;5.996;2024-03-17T00:38:00;3.70;99.90
20416;DHT22;10367;52.202;5.996;2024-03-17T00:40:30;3.70;99.90
20416;DHT22;10367;52.202;5.996;2024-03-17T00:42:59;3.70;99.90
20416;DHT22;10367;52.202;5.996;2024-03-17T00:45:26;3.80;99.90
20416;DHT22;10367;52.202;5.996;2024-03-17T00:47:53;3.80;99.90
20416;DHT22;10367;52.202;5.996;2024-03-17T00:50:20;3.80;99.90
20416;DHT22;10367;52.202;5.996;2024-03-17T00:52:48;3.80;99.90
20416;DHT22;10367;52.202;5.996;2024-03-17T00:55:15;3.80;99.90
20416;DHT22;10367;52.202;5.996;2024-03-17T00:57:42;3.70;99.90
20416;DHT22;10367;52.202;5.996;2024-03-17T01:00:11;3.80;99.90
20416;DHT22;10367;52.202;5.996;2024-03-17T01:02:41;3.80;99.90
20416;DHT22;10367;52.202;5.996;2024-03-17T01:05:08;3.80;99.90
20416;DHT22;10367;52.202;5.996;2024-03-17T01:07:37;3.80;99.90
20416;DHT22;10367;52.202;5.996;2024-03-17T01:10:04;3.80;99.90
20416;DHT22;10367;52.202;5.996;2024-03-17T01:12:34;3.80;99.90
20416;DHT22;10367;52.202;5.996;2024-03-17T01:15:04;3.80;99.90
20416;DHT22;10367;52.202;5.996;2024-03-17T01:17:33;3.80;99.90
20416;DHT22;10367;52.202;5.996;2024-03-17T01:20:00;3.80;99.90
20416;DHT22;10367;52.202;5.996;2024-03-17T01:22:29;3.80;99.90
20416;DHT22;10367;52.202;5.996;2024-03-17T01:24:56;3.70;99.90
20416;DHT22;10367;52.202;5.996;2024-03-17T01:27:23;3.60;99.90
20416;DHT22;10367;52.202;5.996;2024-03-17T01:29:50;3.50;99.90
20416;DHT22;10367;52.202;5.996;2024-03-17T01:32:23;3.50;99.90
20416;DHT22;10367;52.202;5.996;2024-03-17T01:34:51;3.50;99.90
20416;DHT22;10367;52.202;5.996;2024-03-17T01:37:19;3.50;99.90
20416;DHT22;10367;52.202;5.996;2024-03-17T01:39:46;3.60;99.90
20416;DHT22;10367;52.202;5.996;2024-03-17T01:42:13;3.70;99.90
20416;DHT22;10367;52.202;5.996;2024-03-17T01:44:40;3.60;99.90
20416;DHT22;10367;52.202;5.996;2024-03-17T01:47:08;3.60;99.90
20416;DHT22;10367;52.202;5.996;2024-03-17T01:49:35;3.70;99.90
20416;DHT22;10367;52.202;5.996;2024-03-17T01:52:05;3.70;99.90
20416;DHT22;10367;52.202;5.996;2024-03-17T01:54:32;3.70;99.90
20416;DHT22;10367;52.202;5.996;2024-03-17T01:57:00;3.80;99.90
20416;DHT22;10367;52.202;5.996;2024-03-17T01:59:26;3.70;99.90
20416;DHT22;10367;52.202;5.996;2024-03-17T02:01:54;3.70;99.90
20416;DHT22;10367;52.202;5.996;2024-03-17T02:04:21;3.70;99.90
20416;DHT22;10367;52.202;5.996;2024-03-17T02:06:49;3.60;99.90
20416;DHT22;10367;52.202;5.996;2024-03-17T02:09:17;3.50;99.90
20416;DHT22;10367;52.202;5.996;2024-03-17T02:11:45;3.50;99.90
20416;DHT22;10367;52.202;5.996;2024-03-17T02:14:12;3.50;99.90
20416;DHT22;10367;52.202;5.996;2024-03-17T02:16:41;3.50;99.90
20416;DHT22;10367;52.202;5.996;2024-03-17T02:19:07;3.50;99.90
20416;DHT22;10367;52.202;5.996;2024-03-17T02:21:35;3.50;99.90
20416;DHT22;10367;52.202;5.996;2024-03-17T02:24:05;3.50;99.90
20416;DHT22;10367;52.202;5.996;2024-03-17T02:26:35;3.40;99.90
20416;DHT22;10367;52.202;5.996;2024-03-17T02:29:01;3.40;99.90
20416;DHT22;10367;52.202;5.996;2024-03-17T02:31:29;3.40;99.90
20416;DHT22;10367;52.202;5.996;2024-03-17T02:33:56;3.40;99.90
20416;DHT22;10367;52.202;5.996;2024-03-17T02:36:23;3.40;99.90
20416;DHT22;10367;52.202;5.996;2024-03-17T02:38:50;3.50;99.90
20416;DHT22;10367;52.202;5.996;2024-03-17T02:41:36;3.50;99.90
20416;DHT22;10367;52.202;5.996;2024-03-17T02:44:04;3.50;99.90
20416;DHT22;10367;52.202;5.996;2024-03-17T02:46:32;3.50;99.90
20416;DHT22;10367;52.202;5.996;2024-03-17T02:49:00;3.60;99.90
20416;DHT22;10367;52.202;5.996;2024-03-17T02:51:28;3.70;99.90
20416;DHT22;10367;52.202;5.996;2024-03-17T02:53:56;3.70;99.90
20416;DHT22;10367;52.202;5.996;2024-03-17T02:56:25;3.80;99.90
20416;DHT22;10367;52.202;5.996;2024-03-17T02:58:54;3.80;99.90
20416;DHT22;10367;52.202;5.996;2024-03-17T03:01:22;3.90;99.90
20416;DHT22;10367;52.202;5.996;2024-03-17T03:03:50;3.90;99.90
20416;DHT22;10367;52.202;5.996;2024-03-17T03:06:18;3.90;99.90
20416;DHT22;10367;52.202;5.996;2024-03-17T03:08:46;3.90;99.90
20416;DHT22;10367;52.202;5.996;2024-03-17T03:11:17;3.90;99.90
20416;DHT22;10367;52.202;5.996;2024-03-17T03:13:44;4.00;99.90
20416;DHT22;10367;52.202;5.996;2024-03-17T03:16:14;4.00;99.90
20416;DHT22;10367;52.202;5.996;2024-03-17T03:18:42;4.00;99.90
20416;DHT22;10367;52.202;5.996;2024-03-17T03:21:11;4.10;99.90
20416;DHT22;10367;52.202;5.996;2024-03-17T03:23:39;4.20;99.90
20416;DHT22;10367;52.202;5.996;2024-03-17T03:26:06;4.20;99.90
20416;DHT22;10367;52.202;5.996;2024-03-17T03:28:36;4.20;99.90
20416;DHT22;10367;52.202;5.996;2024-03-17T03:31:04;4.20;99.90
20416;DHT22;10367;52.202;5.996;2024-03-17T03:33:34;4.20;99.90
20416;DHT22;10367;52.202;5.996;2024-03-17T03:36:08;4.20;99.90
20416;DHT22;10367;52.202;5.996;2024-03-17T03:38:36;4.30;99.90
20416;DHT22;10367;52.202;5.996;2024-03-17T03:41:08;4.40;99.90
20416;DHT22;10367;52.202;5.996;2024-03-17T03:43:35;4.40;99.90
20416;DHT22;10367;52.202;5.996;2024-03-17T03:46:04;4.50;99.90
20416;DHT22;10367;52.202;5.996;2024-03-17T03:48:34;4.40;99.90
20416;DHT22;10367;52.202;5.996;2024-03-17T03:51:05;4.50;99.90
20416;DHT22;10367;52.202;5.996;2024-03-17T03:53:34;4.50;99.90
20416;DHT22;10367;52.202;5.996;2024-03-17T03:56:03;4.50;99.90
20416;DHT22;10367;52.202;5.996;2024-03-17T03:58:32;4.50;99.90
20416;DHT22;10367;52.202;5.996;2024-03-17T04:01:03;4.50;99.90
20416;DHT22;10367;52.202;5.996;2024-03-17T04:03:31;4.40;99.90
20416;DHT22;10367;52.202;5.996;2024-03-17T04:06:05;4.40;99.90
20416;DHT22;10367;52.202;5.996;2024-03-17T04:08:33;4.50;99.90
20416;DHT22;10367;52.202;5.996;2024-03-17T04:11:01;4.50;99.90
20416;DHT22;10367;52.202;5.996;2024-03-17T04:13:29;4.50;99.90
20416;DHT22;10367;52.202;5.996;2024-03-17T04:15:57;4.50;99.90
20416;DHT22;10367;52.202;5.996;2024-03-17T04:18:26;4.50;99.90
20416;DHT22;10367;52.202;5.996;2024-03-17T04:20:57;4.50;99.90
20416;DHT22;10367;52.202;5.996;2024-03-17T04:23:26;4.50;99.90
20416;DHT22;10367;52.202;5.996;2024-03-17T04:25:54;4.50;99.90
20416;DHT22;10367;52.202;5.996;2024-03-17T04:28:21;4.50;99.90
20416;DHT22;10367;52.202;5.996;2024-03-17T04:30:50;4.60;99.90
20416;DHT22;10367;52.202;5.996;2024-03-17T04:33:18;4.60;99.90
20416;DHT22;10367;52.202;5.996;2024-03-17T04:35:45;4.70;99.90
20416;DHT22;10367;52.202;5.996;2024-03-17T04:38:13;4.70;99.90
20416;DHT22;10367;52.202;5.996;2024-03-17T04:40:44;4.70;99.90
20416;DHT22;10367;52.202;5.996;2024-03-17T04:43:12;4.70;99.90
20416;DHT22;10367;52.202;5.996;2024-03-17T04:45:40;4.70;99.90
20416;DHT22;10367;52.202;5.996;2024-03-17T04:48:10;4.70;99.90
20416;DHT22;10367;52.202;5.996;2024-03-17T04:50:38;4.80;99.90
20416;DHT22;10367;52.202;5.996;2024-03-17T04:53:06;4.80;99.90
20416;DHT22;10367;52.202;5.996;2024-03-17T04:55:33;4.80;99.90
20416;DHT22;10367;52.202;5.996;2024-03-17T04:58:01;4.80;99.90
20416;DHT22;10367;52.202;5.996;2024-03-17T05:00:29;4.90;99.90
20416;DHT22;10367;52.202;5.996;2024-03-17T05:02:57;4.90;99.90
20416;DHT22;10367;52.202;5.996;2024-03-17T05:05:24;4.80;99.90
20416;DHT22;10367;52.202;5.996;2024-03-17T05:07:52;4.80;99.90
20416;DHT22;10367;52.202;5.996;2024-03-17T05:10:20;4.80;99.90
20416;DHT22;10367;52.202;5.996;2024-03-17T05:12:47;4.80;99.90
20416;DHT22;10367;52.202;5.996;2024-03-17T05:15:16;4.80;99.90
20416;DHT22;10367;52.202;5.996;2024-03-17T05:17:44;4.70;99.90
20416;DHT22;10367;52.202;5.996;2024-03-17T05:20:12;4.70;99.90
20416;DHT22;10367;52.202;5.996;2024-03-17T05:22:39;4.80;99.90
20416;DHT22;10367;52.202;5.996;2024-03-17T05:25:07;4.80;99.90
20416;DHT22;10367;52.202;5.996;2024-03-17T05:27:35;4.80;99.90
20416;DHT22;10367;52.202;5.996;2024-03-17T05:30:03;4.90;99.90
20416;DHT22;10367;52.202;5.996;2024-03-17T05:32:35;4.90;99.90
20416;DHT22;10367;52.202;5.996;2024-03-17T05:35:04;4.90;99.90
20416;DHT22;10367;52.202;5.996;2024-03-17T05:37:32;5.00;99.90
20416;DHT22;10367;52.202;5.996;2024-03-17T05:39:59;5.00;99.90
20416;DHT22;10367;52.202;5.996;2024-03-17T05:42:27;5.00;99.90
20416;DHT22;10367;52.202;5.996;2024-03-17T05:44:55;5.00;99.90
20416;DHT22;10367;52.202;5.996;2024-03-17T05:47:22;5.00;99.90
20416;DHT22;10367;52.202;5.996;2024-03-17T05:49:53;5.00;99.90
20416;DHT22;10367;52.202;5.996;2024-03-17T05:52:22;5.00;99.90
20416;DHT22;10367;52.202;5.996;2024-03-17T05:54:49;5.00;99.90
20416;DHT22;10367;52.202;5.996;2024-03-17T05:57:17;5.00;99.90
20416;DHT22;10367;52.202;5.996;2024-03-17T05:59:45;4.90;99.90
20416;DHT22;10367;52.202;5.996;2024-03-17T06:02:12;4.90;99.90
20416;DHT22;10367;52.202;5.996;2024-03-17T06:04:41;4.90;99.90
20416;DHT22;10367;52.202;5.996;2024-03-17T06:07:10;4.90;99.90
20416;DHT22;10367;52.202;5.996;2024-03-17T06:09:38;4.90;99.90
20416;DHT22;10367;52.202;5.996;2024-03-17T06:12:06;4.90;99.90
20416;DHT22;10367;52.202;5.996;2024-03-17T06:14:34;4.90;99.90
20416;DHT22;10367;52.202;5.996;2024-03-17T06:17:01;4.90;99.90
20416;DHT22;10367;52.202;5.996;2024-03-17T06:19:30;4.90;99.90
20416;DHT22;10367;52.202;5.996;2024-03-17T06:21:58;4.90;99.90
20416;DHT22;10367;52.202;5.996;2024-03-17T06:24:28;5.00;99.90
20416;DHT22;10367;52.202;5.996;2024-03-17T06:26:56;5.00;99.90
20416;DHT22;10367;52.202;5.996;2024-03-17T06:29:23;5.10;99.90
20416;DHT22;10367;52.202;5.996;2024-03-17T06:31:51;5.10;99.90
20416;DHT22;10367;52.202;5.996;2024-03-17T06:34:19;5.20;99.90
20416;DHT22;10367;52.202;5.996;2024-03-17T06:36:47;5.20;99.90
20416;DHT22;10367;52.202;5.996;2024-03-17T06:39:15;5.20;99.90
20416;DHT22;10367;52.202;5.996;2024-03-17T06:41:47;5.30;99.90
20416;DHT22;10367;52.202;5.996;2024-03-17T06:44:14;5.50;99.90
20416;DHT22;10367;52.202;5.996;2024-03-17T06:46:42;5.60;99.90
20416;DHT22;10367;52.202;5.996;2024-03-17T06:49:10;5.70;99.90
20416;DHT22;10367;52.202;5.996;2024-03-17T06:51:38;5.70;99.90
20416;DHT22;10367;52.202;5.996;2024-03-17T06:54:06;5.80;99.90
20416;DHT22;10367;52.202;5.996;2024-03-17T06:56:35;5.80;99.90
20416;DHT22;10367;52.202;5.996;2024-03-17T06:59:05;5.90;99.90
20416;DHT22;10367;52.202;5.996;2024-03-17T07:01:33;6.00;99.90
20416;DHT22;10367;52.202;5.996;2024-03-17T07:04:00;6.00;99.90
20416;DHT22;10367;52.202;5.996;2024-03-17T07:06:28;6.10;99.90
20416;DHT22;10367;52.202;5.996;2024-03-17T07:08:56;6.30;99.90
20416;DHT22;10367;52.202;5.996;2024-03-17T07:11:23;6.30;99.90
20416;DHT22;10367;52.202;5.996;2024-03-17T07:13:51;6.40;99.90
20416;DHT22;10367;52.202;5.996;2024-03-17T07:16:20;6.50;99.90
20416;DHT22;10367;52.202;5.996;2024-03-17T07:18:51;6.60;99.90
20416;DHT22;10367;52.202;5.996;2024-03-17T07:21:19;6.70;99.90
20416;DHT22;10367;52.202;5.996;2024-03-17T07:23:48;6.70;99.90
20416;DHT22;10367;52.202;5.996;2024-03-17T07:26:15;6.80;99.90
20416;DHT22;10367;52.202;5.996;2024-03-17T07:28:43;6.90;99.90
20416;DHT22;10367;52.202;5.996;2024-03-17T07:31:11;7.00;99.90
20416;DHT22;10367;52.202;5.996;2024-03-17T07:33:40;7.10;99.90
20416;DHT22;10367;52.202;5.996;2024-03-17T07:36:08;7.20;99.90
20416;DHT22;10367;52.202;5.996;2024-03-17T07:38:37;7.30;99.90
20416;DHT22;10367;52.202;5.996;2024-03-17T07:41:05;7.40;99.90
20416;DHT22;10367;52.202;5.996;2024-03-17T07:43:34;7.50;99.90
20416;DHT22;10367;52.202;5.996;2024-03-17T07:46:04;7.60;99.90
20416;DHT22;10367;52.202;5.996;2024-03-17T07:48:34;7.70;99.90
20416;DHT22;10367;52.202;5.996;2024-03-17T07:51:05;7.70;99.90
20416;DHT22;10367;52.202;5.996;2024-03-17T07:53:33;7.80;99.90
20416;DHT22;10367;52.202;5.996;2024-03-17T07:56:02;7.80;99.90
20416;DHT22;10367;52.202;5.996;2024-03-17T07:58:31;7.90;99.90
20416;DHT22;10367;52.202;5.996;2024-03-17T08:01:01;7.90;99.90
20416;DHT22;10367;52.202;5.996;2024-03-17T08:03:30;8.00;99.90
20416;DHT22;10367;52.202;5.996;2024-03-17T08:05:58;8.10;99.90
20416;DHT22;10367;52.202;5.996;2024-03-17T08:08:27;8.30;99.90
20416;DHT22;10367;52.202;5.996;2024-03-17T08:10:54;8.40;99.90
20416;DHT22;10367;52.202;5.996;2024-03-17T08:13:22;8.50;99.90
20416;DHT22;10367;52.202;5.996;2024-03-17T08:15:55;8.60;99.90
20416;DHT22;10367;52.202;5.996;2024-03-17T08:18:24;8.80;99.90
20416;DHT22;10367;52.202;5.996;2024-03-17T08:20:53;8.90;99.90
20416;DHT22;10367;52.202;5.996;2024-03-17T08:23:21;9.00;99.90
20416;DHT22;10367;52.202;5.996;2024-03-17T08:25:54;9.10;99.90
20416;DHT22;10367;52.202;5.996;2024-03-17T08:28:22;9.20;99.90
20416;DHT22;10367;52.202;5.996;2024-03-17T08:30:53;9.40;99.90
20416;DHT22;10367;52.202;5.996;2024-03-17T08:33:22;9.50;99.90
20416;DHT22;10367;52.202;5.996;2024-03-17T08:35:54;9.60;99.90
20416;DHT22;10367;52.202;5.996;2024-03-17T08:38:22;9.80;99.90
20416;DHT22;10367;52.202;5.996;2024-03-17T08:40:50;9.80;99.90
20416;DHT22;10367;52.202;5.996;2024-03-17T08:43:20;9.90;99.90
20416;DHT22;10367;52.202;5.996;2024-03-17T08:45:55;10.00;99.90
20416;DHT22;10367;52.202;5.996;2024-03-17T08:48:25;10.10;99.90
20416;DHT22;10367;52.202;5.996;2024-03-17T08:50:53;10.10;99.90
20416;DHT22;10367;52.202;5.996;2024-03-17T08:53:21;10.10;99.90
20416;DHT22;10367;52.202;5.996;2024-03-17T08:55:49;10.20;99.90
20416;DHT22;10367;52.202;5.996;2024-03-17T08:58:17;10.20;99.90
20416;DHT22;10367;52.202;5.996;2024-03-17T09:00:46;10.30;99.90
20416;DHT22;10367;52.202;5.996;2024-03-17T09:03:14;10.40;99.90
20416;DHT22;10367;52.202;5.996;2024-03-17T09:05:44;10.50;99.90
20416;DHT22;10367;52.202;5.996;2024-03-17T09:08:16;10.50;99.90
20416;DHT22;10367;52.202;5.996;2024-03-17T09:10:44;10.60;99.90
20416;DHT22;10367;52.202;5.996;2024-03-17T09:13:13;10.70;99.90
20416;DHT22;10367;52.202;5.996;2024-03-17T09:15:54;10.70;99.90
20416;DHT22;10367;52.202;5.996;2024-03-17T09:18:23;10.80;99.90
20416;DHT22;10367;52.202;5.996;2024-03-17T09:20:58;10.80;99.90
20416;DHT22;10367;52.202;5.996;2024-03-17T09:23:27;10.90;99.90
20416;DHT22;10367;52.202;5.996;2024-03-17T09:25:57;10.90;99.90
20416;DHT22;10367;52.202;5.996;2024-03-17T09:28:24;11.00;99.90
20416;DHT22;10367;52.202;5.996;2024-03-17T09:30:53;11.00;99.90
20416;DHT22;10367;52.202;5.996;2024-03-17T09:33:22;11.00;99.90
20416;DHT22;10367;52.202;5.996;2024-03-17T09:35:54;11.00;99.90
20416;DHT22;10367;52.202;5.996;2024-03-17T09:38:22;11.20;99.90
20416;DHT22;10367;52.202;5.996;2024-03-17T09:40:50;11.30;99.90
20416;DHT22;10367;52.202;5.996;2024-03-17T09:43:19;11.40;99.90
20416;DHT22;10367;52.202;5.996;2024-03-17T09:45:48;11.50;99.90
20416;DHT22;10367;52.202;5.996;2024-03-17T09:48:17;11.50;99.90
20416;DHT22;10367;52.202;5.996;2024-03-17T09:50:51;11.50;99.90
20416;DHT22;10367;52.202;5.996;2024-03-17T09:53:23;11.50;99.90
20416;DHT22;10367;52.202;5.996;2024-03-17T09:55:52;11.40;99.90
20416;DHT22;10367;52.202;5.996;2024-03-17T09:58:20;11.40;99.90
20416;DHT22;10367;52.202;5.996;2024-03-17T10:00:48;11.30;99.90
20416;DHT22;10367;52.202;5.996;2024-03-17T10:03:42;11.20;99.90
20416;DHT22;10367;52.202;5.996;2024-03-17T10:06:11;11.20;99.90
20416;DHT22;10367;52.202;5.996;2024-03-17T10:08:43;11.10;99.90
20416;DHT22;10367;52.202;5.996;2024-03-17T10:11:13;11.10;99.90
20416;DHT22;10367;52.202;5.996;2024-03-17T10:13:42;11.00;99.90
20416;DHT22;10367;52.202;5.996;2024-03-17T10:16:31;11.10;99.90
20416;DHT22;10367;52.202;5.996;2024-03-17T10:19:08;11.00;99.90
20416;DHT22;10367;52.202;5.996;2024-03-17T10:21:37;11.10;99.90
20416;DHT22;10367;52.202;5.996;2024-03-17T10:24:07;11.10;99.90
20416;DHT22;10367;52.202;5.996;2024-03-17T10:26:37;11.10;99.90
20416;DHT22;10367;52.202;5.996;2024-03-17T10:29:07;11.10;99.90
20416;DHT22;10367;52.202;5.996;2024-03-17T10:31:43;11.20;99.90
20416;DHT22;10367;52.202;5.996;2024-03-17T10:34:15;11.30;99.90
20416;DHT22;10367;52.202;5.996;2024-03-17T10:36:43;11.30;99.90
20416;DHT22;10367;52.202;5.996;2024-03-17T10:39:23;11.30;99.90
20416;DHT22;10367;52.202;5.996;2024-03-17T10:42:00;11.30;99.90
20416;DHT22;10367;52.202;5.996;2024-03-17T10:44:28;11.40;99.90
20416;DHT22;10367;52.202;5.996;2024-03-17T10:46:57;11.40;99.90
20416;DHT22;10367;52.202;5.996;2024-03-17T10:49:29;11.50;99.90
20416;DHT22;10367;52.202;5.996;2024-03-17T10:51:59;11.70;99.90
20416;DHT22;10367;52.202;5.996;2024-03-17T10:54:28;11.80;99.90
20416;DHT22;10367;52.202;5.996;2024-03-17T10:56:57;12.00;99.90
20416;DHT22;10367;52.202;5.996;2024-03-17T10:59:39;12.10;99.90
20416;DHT22;10367;52.202;5.996;2024-03-17T11:02:20;12.20;99.90
20416;DHT22;10367;52.202;5.996;2024-03-17T11:04:54;12.40;99.90
20416;DHT22;10367;52.202;5.996;2024-03-17T11:07:23;12.50;99.90
20416;DHT22;10367;52.202;5.996;2024-03-17T11:09:53;12.60;99.90
20416;DHT22;10367;52.202;5.996;2024-03-17T11:12:40;12.60;99.90
20416;DHT22;10367;52.202;5.996;2024-03-17T11:15:38;12.70;99.90
20416;DHT22;10367;52.202;5.996;2024-03-17T11:18:28;12.60;99.90
20416;DHT22;10367;52.202;5.996;2024-03-17T11:21:00;12.60;99.90
20416;DHT22;10367;52.202;5.996;2024-03-17T11:23:34;12.60;99.90
20416;DHT22;10367;52.202;5.996;2024-03-17T11:26:04;12.70;99.90
20416;DHT22;10367;52.202;5.996;2024-03-17T11:28:46;12.60;99.90
20416;DHT22;10367;52.202;5.996;2024-03-17T11:31:33;12.80;99.90
20416;DHT22;10367;52.202;5.996;2024-03-17T11:34:02;12.80;99.90
20416;DHT22;10367;52.202;5.996;2024-03-17T11:36:36;12.70;99.90
20416;DHT22;10367;52.202;5.996;2024-03-17T11:39:04;12.60;99.90
20416;DHT22;10367;52.202;5.996;2024-03-17T11:41:42;12.50;99.90
20416;DHT22;10367;52.202;5.996;2024-03-17T11:44:16;12.50;99.90
20416;DHT22;10367;52.202;5.996;2024-03-17T11:46:52;12.50;99.90
20416;DHT22;10367;52.202;5.996;2024-03-17T11:49:20;12.50;99.90
20416;DHT22;10367;52.202;5.996;2024-03-17T11:51:50;12.60;99.90
20416;DHT22;10367;52.202;5.996;2024-03-17T11:54:18;12.70;99.90
20416;DHT22;10367;52.202;5.996;2024-03-17T11:56:48;12.80;99.90
20416;DHT22;10367;52.202;5.996;2024-03-17T11:59:15;12.70;99.90
20416;DHT22;10367;52.202;5.996;2024-03-17T12:01:45;12.80;99.90
20416;DHT22;10367;52.202;5.996;2024-03-17T12:04:15;12.90;99.90
20416;DHT22;10367;52.202;5.996;2024-03-17T12:06:45;12.90;99.90
20416;DHT22;10367;52.202;5.996;2024-03-17T12:09:18;13.10;99.90
20416;DHT22;10367;52.202;5.996;2024-03-17T12:11:48;13.20;99.90
20416;DHT22;10367;52.202;5.996;2024-03-17T12:14:16;13.30;99.90
20416;DHT22;10367;52.202;5.996;2024-03-17T12:16:50;13.40;99.90
20416;DHT22;10367;52.202;5.996;2024-03-17T12:19:18;13.40;99.90
20416;DHT22;10367;52.202;5.996;2024-03-17T12:21:48;13.40;99.90
20416;DHT22;10367;52.202;5.996;2024-03-17T12:24:18;13.40;99.90
20416;DHT22;10367;52.202;5.996;2024-03-17T12:26:49;13.50;99.90
20416;DHT22;10367;52.202;5.996;2024-03-17T12:29:26;13.70;99.90
20416;DHT22;10367;52.202;5.996;2024-03-17T12:31:57;13.80;99.90
20416;DHT22;10367;52.202;5.996;2024-03-17T12:34:26;13.80;99.90
20416;DHT22;10367;52.202;5.996;2024-03-17T12:36:55;13.90;99.90
20416;DHT22;10367;52.202;5.996;2024-03-17T12:39:24;13.80;99.90
20416;DHT22;10367;52.202;5.996;2024-03-17T12:42:06;13.70;99.90
20416;DHT22;10367;52.202;5.996;2024-03-17T12:44:35;13.70;99.90
20416;DHT22;10367;52.202;5.996;2024-03-17T12:47:05;13.80;99.90
20416;DHT22;10367;52.202;5.996;2024-03-17T12:49:33;13.80;99.90
20416;DHT22;10367;52.202;5.996;2024-03-17T12:52:01;13.90;99.90
20416;DHT22;10367;52.202;5.996;2024-03-17T12:54:30;13.80;99.90
20416;DHT22;10367;52.202;5.996;2024-03-17T12:57:07;13.80;99.90
20416;DHT22;10367;52.202;5.996;2024-03-17T12:59:53;13.90;99.90
20416;DHT22;10367;52.202;5.996;2024-03-17T13:02:35;13.90;99.90
20416;DHT22;10367;52.202;5.996;2024-03-17T13:05:14;13.80;99.90
20416;DHT22;10367;52.202;5.996;2024-03-17T13:07:42;13.80;99.90
20416;DHT22;10367;52.202;5.996;2024-03-17T13:10:15;13.70;99.90
20416;DHT22;10367;52.202;5.996;2024-03-17T13:12:43;13.70;99.90
20416;DHT22;10367;52.202;5.996;2024-03-17T13:15:13;13.70;99.90
20416;DHT22;10367;52.202;5.996;2024-03-17T13:17:42;13.70;99.90
20416;DHT22;10367;52.202;5.996;2024-03-17T13:20:14;13.70;99.90
20416;DHT22;10367;52.202;5.996;2024-03-17T13:22:42;13.60;99.90
20416;DHT22;10367;52.202;5.996;2024-03-17T13:25:17;13.70;99.90
20416;DHT22;10367;52.202;5.996;2024-03-17T13:27:45;13.60;99.90
20416;DHT22;10367;52.202;5.996;2024-03-17T13:30:14;13.60;99.90
20416;DHT22;10367;52.202;5.996;2024-03-17T13:32:42;13.60;99.90
20416;DHT22;10367;52.202;5.996;2024-03-17T13:35:15;13.70;99.90
20416;DHT22;10367;52.202;5.996;2024-03-17T13:37:45;13.70;99.90
20416;DHT22;10367;52.202;5.996;2024-03-17T13:40:17;13.60;99.90
20416;DHT22;10367;52.202;5.996;2024-03-17T13:42:46;13.60;99.90
20416;DHT22;10367;52.202;5.996;2024-03-17T13:45:15;13.60;99.90
20416;DHT22;10367;52.202;5.996;2024-03-17T13:47:47;13.50;99.90
20416;DHT22;10367;52.202;5.996;2024-03-17T13:50:15;13.50;99.90
20416;DHT22;10367;52.202;5.996;2024-03-17T13:52:44;13.40;99.90
20416;DHT22;10367;52.202;5.996;2024-03-17T13:55:16;13.40;99.90
20416;DHT22;10367;52.202;5.996;2024-03-17T13:57:45;13.50;99.90
20416;DHT22;10367;52.202;5.996;2024-03-17T14:00:14;13.50;99.90
20416;DHT22;10367;52.202;5.996;2024-03-17T14:02:43;13.60;99.90
20416;DHT22;10367;52.202;5.996;2024-03-17T14:05:13;13.60;99.90
20416;DHT22;10367;52.202;5.996;2024-03-17T14:07:41;13.50;99.90
20416;DHT22;10367;52.202;5.996;2024-03-17T14:10:10;13.50;99.90
20416;DHT22;10367;52.202;5.996;2024-03-17T14:12:40;13.50;99.90
20416;DHT22;10367;52.202;5.996;2024-03-17T14:15:09;13.40;99.90
20416;DHT22;10367;52.202;5.996;2024-03-17T14:17:38;13.30;99.90
20416;DHT22;10367;52.202;5.996;2024-03-17T14:20:06;13.30;99.90
20416;DHT22;10367;52.202;5.996;2024-03-17T14:22:36;13.20;99.90
20416;DHT22;10367;52.202;5.996;2024-03-17T14:25:05;13.20;99.90
20416;DHT22;10367;52.202;5.996;2024-03-17T14:27:33;13.10;99.90
20416;DHT22;10367;52.202;5.996;2024-03-17T14:30:04;13.00;99.90
20416;DHT22;10367;52.202;5.996;2024-03-17T14:32:32;13.00;99.90
20416;DHT22;10367;52.202;5.996;2024-03-17T14:34:59;13.00;99.90
20416;DHT22;10367;52.202;5.996;2024-03-17T14:37:27;13.00;99.90
20416;DHT22;10367;52.202;5.996;2024-03-17T14:39:55;13.00;99.90
20416;DHT22;10367;52.202;5.996;2024-03-17T14:42:22;13.00;99.90
20416;DHT22;10367;52.202;5.996;2024-03-17T14:44:51;13.00;99.90
20416;DHT22;10367;52.202;5.996;2024-03-17T14:47:20;12.90;99.90
20416;DHT22;10367;52.202;5.996;2024-03-17T14:49:50;12.90;99.90
20416;DHT22;10367;52.202;5.996;2024-03-17T14:52:17;12.80;99.90
20416;DHT22;10367;52.202;5.996;2024-03-17T14:54:44;12.80;99.90
20416;DHT22;10367;52.202;5.996;2024-03-17T14:57:12;12.80;99.90
20416;DHT22;10367;52.202;5.996;2024-03-17T14:59:41;12.80;99.90
20416;DHT22;10367;52.202;5.996;2024-03-17T15:02:09;12.80;99.90
20416;DHT22;10367;52.202;5.996;2024-03-17T15:04:38;12.80;99.90
20416;DHT22;10367;52.202;5.996;2024-03-17T15:07:06;12.80;99.90
20416;DHT22;10367;52.202;5.996;2024-03-17T15:09:34;12.80;99.90
20416;DHT22;10367;52.202;5.996;2024-03-17T15:12:03;12.80;99.90
20416;DHT22;10367;52.202;5.996;2024-03-17T15:14:33;12.80;99.90
20416;DHT22;10367;52.202;5.996;2024-03-17T15:17:03;12.80;99.90
20416;DHT22;10367;52.202;5.996;2024-03-17T15:19:32;12.90;99.90
20416;DHT22;10367;52.202;5.996;2024-03-17T15:22:02;12.90;99.90
20416;DHT22;10367;52.202;5.996;2024-03-17T15:24:30;13.00;99.90
20416;DHT22;10367;52.202;5.996;2024-03-17T15:26:58;13.10;99.90
20416;DHT22;10367;52.202;5.996;2024-03-17T15:29:26;13.10;99.90
20416;DHT22;10367;52.202;5.996;2024-03-17T15:31:53;13.20;99.90
20416;DHT22;10367;52.202;5.996;2024-03-17T15:34:23;13.30;99.90
20416;DHT22;10367;52.202;5.996;2024-03-17T15:36:51;13.40;99.90
20416;DHT22;10367;52.202;5.996;2024-03-17T15:39:20;13.40;99.90
20416;DHT22;10367;52.202;5.996;2024-03-17T15:41:48;13.40;99.90
20416;DHT22;10367;52.202;5.996;2024-03-17T15:44:16;13.30;99.90
20416;DHT22;10367;52.202;5.996;2024-03-17T15:46:44;13.30;99.90
20416;DHT22;10367;52.202;5.996;2024-03-17T15:49:11;13.30;99.90
20416;DHT22;10367;52.202;5.996;2024-03-17T15:51:39;13.30;99.90
20416;DHT22;10367;52.202;5.996;2024-03-17T15:54:07;13.40;99.90